createdAt,value
2018-12-20T00:00:01.839Z,3.04
2018-12-20T00:02:29.988Z,2.98
2018-12-20T00:04:57.502Z,2.95
2018-12-20T00:07:25.054Z,2.91
2018-12-20T00:09:52.660Z,2.86
2018-12-20T00:12:20.260Z,2.86
2018-12-20T00:14:47.904Z,2.85
2018-12-20T00:17:21.212Z,2.94
2018-12-20T00:19:48.786Z,2.95
2018-12-20T00:22:16.301Z,3.01
2018-12-20T00:24:43.867Z,3.09
2018-12-20T00:27:11.670Z,3.10
2018-12-20T00:29:39.601Z,3.13
2018-12-20T00:32:07.446Z,3.11
2018-12-20T00:34:35.185Z,3.13
2018-12-20T00:37:02.793Z,3.15
2018-12-20T00:39:30.399Z,3.18
2018-12-20T00:41:57.971Z,3.15
2018-12-20T00:44:25.692Z,3.18
2018-12-20T00:46:53.470Z,3.24
2018-12-20T00:49:21.204Z,3.20
2018-12-20T00:51:48.776Z,3.18
2018-12-20T00:54:16.343Z,3.12
2018-12-20T00:56:44.029Z,3.17
2018-12-20T00:59:11.619Z,3.14
2018-12-20T01:01:39.205Z,3.10
2018-12-20T01:04:06.752Z,3.19
2018-12-20T01:06:34.761Z,3.16
2018-12-20T01:09:02.738Z,3.18
2018-12-20T01:11:30.317Z,3.12
2018-12-20T01:13:57.984Z,3.21
2018-12-20T01:16:26.477Z,3.22
2018-12-20T01:18:54.155Z,3.25
2018-12-20T01:21:21.979Z,3.24
2018-12-20T01:23:49.638Z,3.26
2018-12-20T01:26:17.185Z,3.26
2018-12-20T01:28:44.761Z,3.23
2018-12-20T01:31:12.339Z,3.18
2018-12-20T01:33:40.043Z,3.19
2018-12-20T01:36:07.563Z,3.15
2018-12-20T01:38:35.157Z,3.19
2018-12-20T01:41:02.770Z,3.27
2018-12-20T01:43:30.316Z,3.28
2018-12-20T01:45:58.169Z,3.30
2018-12-20T01:48:25.963Z,3.25
2018-12-20T01:50:53.605Z,3.21
2018-12-20T01:53:21.131Z,3.16
2018-12-20T01:55:48.698Z,3.21
2018-12-20T01:58:16.337Z,3.19
2018-12-20T02:00:43.846Z,3.12
2018-12-20T02:03:11.389Z,3.14
2018-12-20T02:05:39.049Z,3.08
2018-12-20T02:08:07.038Z,2.99
2018-12-20T02:10:34.766Z,2.95
2018-12-20T02:13:02.538Z,2.92
2018-12-20T02:15:30.654Z,2.88
2018-12-20T02:17:58.193Z,2.87
2018-12-20T02:20:26.023Z,2.75
2018-12-20T02:22:53.664Z,2.70
2018-12-20T02:25:21.241Z,2.65
2018-12-20T02:27:48.920Z,2.62
2018-12-20T02:30:16.663Z,2.58
2018-12-20T02:32:44.832Z,2.47
2018-12-20T02:35:12.781Z,2.46
2018-12-20T02:37:40.364Z,2.53
2018-12-20T02:40:08.348Z,2.54
2018-12-20T02:42:35.961Z,2.58
2018-12-20T02:45:10.752Z,2.57
2018-12-20T02:47:33.762Z,2.57
2018-12-20T02:50:02.087Z,2.49
2018-12-20T02:52:29.677Z,2.55
2018-12-20T02:54:57.320Z,2.55
2018-12-20T02:57:24.929Z,2.58
2018-12-20T02:59:52.699Z,2.61
2018-12-20T03:02:20.332Z,2.59
2018-12-20T03:04:47.960Z,2.55
2018-12-20T03:07:15.638Z,2.56
2018-12-20T03:09:43.430Z,2.60
2018-12-20T03:12:11.107Z,2.61
2018-12-20T03:14:38.745Z,2.67
2018-12-20T03:17:06.315Z,2.70
2018-12-20T03:19:33.866Z,2.75
2018-12-20T03:22:01.481Z,2.73
2018-12-20T03:24:29.139Z,2.75
2018-12-20T03:26:56.682Z,2.73
2018-12-20T03:29:24.684Z,2.78
2018-12-20T03:31:52.427Z,2.80
2018-12-20T03:34:20.377Z,2.86
2018-12-20T03:36:48.188Z,2.86
2018-12-20T03:39:15.918Z,2.85
2018-12-20T03:41:43.699Z,2.91
2018-12-20T03:44:11.360Z,2.94
2018-12-20T03:46:38.905Z,2.95
2018-12-20T03:49:06.422Z,2.95
2018-12-20T03:51:34.095Z,2.97
2018-12-20T03:54:01.687Z,3.01
2018-12-20T03:56:29.444Z,3.03
2018-12-20T03:58:57.269Z,3.07
2018-12-20T04:01:24.804Z,2.97
2018-12-20T04:03:53.769Z,3.02
2018-12-20T04:06:21.603Z,3.01
2018-12-20T04:08:49.213Z,3.01
2018-12-20T04:11:16.800Z,2.99
2018-12-20T04:13:44.560Z,3.01
2018-12-20T04:16:12.123Z,3.00
2018-12-20T04:18:39.793Z,2.98
2018-12-20T04:21:07.392Z,2.95
2018-12-20T04:23:35.047Z,2.98
2018-12-20T04:26:02.840Z,2.98
2018-12-20T04:28:30.955Z,2.98
2018-12-20T04:30:58.651Z,3.01
2018-12-20T04:33:26.196Z,3.07
2018-12-20T04:35:53.900Z,3.05
2018-12-20T04:38:21.548Z,3.07
2018-12-20T04:40:49.303Z,3.13
2018-12-20T04:43:17.339Z,3.10
2018-12-20T04:45:46.772Z,3.09
2018-12-20T04:48:15.459Z,3.12
2018-12-20T04:50:43.344Z,3.14
2018-12-20T04:53:11.105Z,3.21
2018-12-20T04:55:38.632Z,3.22
2018-12-20T04:58:06.298Z,3.21
2018-12-20T05:00:34.081Z,3.19
2018-12-20T05:03:01.839Z,3.21
2018-12-20T05:05:29.686Z,3.23
2018-12-20T05:07:57.533Z,3.18
2018-12-20T05:10:25.381Z,3.19
2018-12-20T05:12:53.070Z,3.10
2018-12-20T05:15:20.746Z,3.19
2018-12-20T05:17:48.425Z,3.18
2018-12-20T05:20:16.044Z,3.14
2018-12-20T05:22:43.676Z,3.17
2018-12-20T05:25:11.217Z,3.14
2018-12-20T05:27:38.963Z,3.09
2018-12-20T05:30:06.818Z,3.12
2018-12-20T05:32:34.453Z,3.08
2018-12-20T05:35:02.331Z,3.10
2018-12-20T05:37:29.898Z,3.12
2018-12-20T05:39:57.523Z,3.11
2018-12-20T05:42:25.503Z,3.09
2018-12-20T05:44:53.228Z,3.10
2018-12-20T05:47:21.122Z,3.10
2018-12-20T05:49:48.913Z,3.09
2018-12-20T05:52:16.720Z,3.13
2018-12-20T05:54:44.431Z,3.10
2018-12-20T05:57:11.949Z,3.12
2018-12-20T05:59:39.557Z,3.01
2018-12-20T06:02:07.995Z,3.04
2018-12-20T06:04:35.787Z,3.03
2018-12-20T06:07:03.457Z,3.04
2018-12-20T06:09:31.003Z,3.10
2018-12-20T06:11:58.978Z,3.06
2018-12-20T06:14:26.676Z,3.07
2018-12-20T06:16:54.321Z,3.13
2018-12-20T06:19:21.893Z,3.11
2018-12-20T06:21:49.518Z,3.13
2018-12-20T06:24:17.061Z,3.21
2018-12-20T06:26:44.603Z,3.23
2018-12-20T06:29:12.149Z,3.20
2018-12-20T06:31:39.741Z,3.18
2018-12-20T06:34:07.285Z,3.22
2018-12-20T06:36:34.844Z,3.16
2018-12-20T06:39:04.905Z,3.19
2018-12-20T06:41:32.797Z,3.23
2018-12-20T06:44:07.112Z,3.11
2018-12-20T06:46:29.887Z,3.12
2018-12-20T06:48:57.453Z,3.12
2018-12-20T06:51:25.008Z,3.04
2018-12-20T06:53:52.956Z,3.08
2018-12-20T06:56:20.489Z,3.08
2018-12-20T06:58:48.004Z,3.10
2018-12-20T07:01:15.650Z,3.18
2018-12-20T07:03:43.181Z,3.18
2018-12-20T07:06:10.701Z,3.16
2018-12-20T07:08:38.281Z,3.20
2018-12-20T07:11:05.832Z,3.16
2018-12-20T07:13:33.389Z,3.18
2018-12-20T07:16:01.475Z,3.18
2018-12-20T07:18:28.997Z,3.19
2018-12-20T07:20:56.559Z,3.24
2018-12-20T07:23:24.245Z,3.22
2018-12-20T07:25:51.839Z,3.25
2018-12-20T07:28:19.387Z,3.27
2018-12-20T07:30:46.889Z,3.29
2018-12-20T07:33:14.766Z,3.31
2018-12-20T07:35:42.302Z,3.35
2018-12-20T07:38:09.850Z,3.42
2018-12-20T07:40:38.222Z,3.37
2018-12-20T07:43:05.908Z,3.34
2018-12-20T07:45:33.473Z,3.33
2018-12-20T07:48:01.112Z,3.28
2018-12-20T07:50:28.660Z,3.33
2018-12-20T07:52:56.241Z,3.39
2018-12-20T07:55:23.940Z,3.43
2018-12-20T07:57:51.460Z,3.35
2018-12-20T08:00:19.035Z,3.40
2018-12-20T08:02:46.569Z,3.36
2018-12-20T08:05:14.142Z,3.33
2018-12-20T08:07:41.733Z,3.34
2018-12-20T08:10:09.657Z,3.29
2018-12-20T08:12:37.201Z,3.35
2018-12-20T08:15:05.182Z,3.39
2018-12-20T08:17:32.769Z,3.44
2018-12-20T08:20:00.344Z,3.46
2018-12-20T08:22:27.902Z,3.50
2018-12-20T08:24:55.441Z,3.53
2018-12-20T08:27:22.941Z,3.50
2018-12-20T08:29:50.485Z,3.61
2018-12-20T08:32:17.997Z,3.57
2018-12-20T08:34:45.838Z,3.56
2018-12-20T08:37:13.369Z,3.63
2018-12-20T08:39:40.884Z,3.67
2018-12-20T08:42:08.458Z,3.83
2018-12-20T08:44:35.981Z,3.87
2018-12-20T08:47:03.525Z,3.98
2018-12-20T08:49:31.186Z,4.14
2018-12-20T08:51:58.779Z,4.22
2018-12-20T08:54:26.421Z,4.15
2018-12-20T08:56:53.958Z,4.21
2018-12-20T08:59:21.513Z,4.18
2018-12-20T09:01:49.085Z,4.27
2018-12-20T09:04:16.593Z,4.18
2018-12-20T09:06:44.105Z,4.13
2018-12-20T09:09:11.683Z,4.19
2018-12-20T09:11:39.213Z,4.22
2018-12-20T09:14:06.846Z,4.43
2018-12-20T09:16:34.385Z,4.80
2018-12-20T09:19:02.178Z,4.87
2018-12-20T09:21:29.757Z,4.80
2018-12-20T09:23:57.273Z,4.71
2018-12-20T09:26:24.848Z,4.66
2018-12-20T09:28:53.302Z,5.25
2018-12-20T09:31:20.986Z,6.19
2018-12-20T09:33:48.655Z,6.19
2018-12-20T09:36:16.565Z,5.99
2018-12-20T09:38:44.261Z,5.66
2018-12-20T09:41:11.846Z,5.32
2018-12-20T09:43:39.436Z,5.05
2018-12-20T09:46:07.057Z,4.92
2018-12-20T09:48:34.839Z,4.93
2018-12-20T09:51:02.374Z,4.73
2018-12-20T09:53:29.965Z,4.64
2018-12-20T09:55:57.510Z,4.89
2018-12-20T09:58:25.290Z,5.90
2018-12-20T10:00:52.817Z,7.15
2018-12-20T10:03:20.348Z,7.58
2018-12-20T10:05:47.985Z,7.13
2018-12-20T10:08:15.618Z,6.46
2018-12-20T10:10:43.155Z,6.10
2018-12-20T10:13:10.858Z,5.99
2018-12-20T10:15:38.397Z,6.21
2018-12-20T10:18:05.932Z,6.93
2018-12-20T10:20:33.464Z,8.02
2018-12-20T10:23:01.028Z,8.96
2018-12-20T10:25:28.563Z,10.17
2018-12-20T10:27:56.151Z,11.49
2018-12-20T10:30:23.738Z,12.23
2018-12-20T10:32:51.250Z,13.14
2018-12-20T10:35:18.789Z,13.02
2018-12-20T10:37:46.320Z,13.83
2018-12-20T10:40:13.866Z,12.93
2018-12-20T10:42:41.406Z,12.04
2018-12-20T10:45:08.906Z,12.44
2018-12-20T10:47:36.514Z,13.01
2018-12-20T10:50:05.521Z,12.09
2018-12-20T10:52:33.437Z,11.32
2018-12-20T10:55:01.314Z,10.97
2018-12-20T10:57:28.813Z,10.12
2018-12-20T10:59:56.377Z,9.73
2018-12-20T11:02:29.633Z,9.39
2018-12-20T11:05:01.663Z,8.38
2018-12-20T11:07:34.896Z,7.82
2018-12-20T11:10:08.687Z,7.28
2018-12-20T11:12:41.914Z,7.02
2018-12-20T11:15:09.784Z,6.93
2018-12-20T11:17:37.766Z,6.79
2018-12-20T11:20:05.553Z,6.59
2018-12-20T11:22:33.457Z,6.11
2018-12-20T11:25:00.992Z,5.95
2018-12-20T11:27:28.533Z,5.88
2018-12-20T11:29:56.256Z,5.68
2018-12-20T11:32:24.094Z,5.60
2018-12-20T11:34:51.657Z,5.52
2018-12-20T11:37:19.195Z,5.21
2018-12-20T11:39:46.768Z,5.20
2018-12-20T11:42:14.305Z,5.22
2018-12-20T11:44:41.884Z,5.19
2018-12-20T11:47:13.946Z,5.04
2018-12-20T11:49:41.479Z,4.95
2018-12-20T11:52:09.040Z,4.78
2018-12-20T11:54:36.616Z,4.86
2018-12-20T11:57:04.152Z,4.98
2018-12-20T11:59:31.735Z,4.94
2018-12-20T12:01:59.614Z,4.94
2018-12-20T12:04:27.151Z,4.87
2018-12-20T12:06:54.693Z,4.89
2018-12-20T12:09:23.239Z,4.87
2018-12-20T12:11:50.795Z,4.85
2018-12-20T12:14:18.330Z,4.90
2018-12-20T12:16:45.887Z,5.12
2018-12-20T12:19:13.493Z,5.02
2018-12-20T12:21:41.040Z,5.07
2018-12-20T12:24:08.557Z,5.07
2018-12-20T12:26:36.106Z,5.07
2018-12-20T12:29:03.656Z,5.07
2018-12-20T12:31:31.197Z,5.01
2018-12-20T12:33:58.746Z,4.97
2018-12-20T12:36:26.931Z,5.03
2018-12-20T12:38:54.707Z,4.93
2018-12-20T12:41:22.243Z,4.86
2018-12-20T12:43:51.033Z,4.94
2018-12-20T12:46:18.892Z,4.88
2018-12-20T12:48:46.397Z,4.89
2018-12-20T12:51:13.977Z,4.94
2018-12-20T12:53:41.562Z,4.95
2018-12-20T12:56:09.193Z,4.96
2018-12-20T12:58:36.737Z,4.97
2018-12-20T13:01:04.340Z,5.01
2018-12-20T13:03:31.946Z,4.93
2018-12-20T13:05:59.609Z,4.95
2018-12-20T13:08:27.133Z,4.88
2018-12-20T13:10:54.719Z,4.85
2018-12-20T13:13:22.255Z,4.85
2018-12-20T13:15:49.857Z,4.92
2018-12-20T13:18:17.424Z,5.01
2018-12-20T13:20:45.028Z,4.85
2018-12-20T13:23:12.575Z,4.86
2018-12-20T13:25:40.121Z,4.85
2018-12-20T13:28:07.693Z,4.87
2018-12-20T13:30:35.278Z,4.83
2018-12-20T13:33:02.847Z,4.77
2018-12-20T13:35:30.409Z,4.79
2018-12-20T13:37:57.969Z,4.78
2018-12-20T13:40:25.603Z,4.68
2018-12-20T13:42:53.141Z,4.75
2018-12-20T13:45:20.677Z,4.72
2018-12-20T13:47:48.240Z,4.76
2018-12-20T13:50:15.780Z,4.74
2018-12-20T13:52:43.380Z,4.75
2018-12-20T13:55:11.073Z,4.67
2018-12-20T13:57:38.634Z,4.62
2018-12-20T14:00:07.414Z,4.52
2018-12-20T14:02:35.036Z,4.55
2018-12-20T14:05:02.618Z,4.56
2018-12-20T14:07:30.174Z,4.54
2018-12-20T14:09:57.741Z,4.50
2018-12-20T14:12:25.293Z,4.61
2018-12-20T14:14:52.809Z,4.61
2018-12-20T14:17:20.385Z,4.60
2018-12-20T14:19:47.918Z,4.58
2018-12-20T14:22:16.559Z,4.64
2018-12-20T14:24:44.060Z,4.67
2018-12-20T14:27:12.625Z,4.70
2018-12-20T14:29:40.295Z,4.61
2018-12-20T14:32:07.835Z,4.51
2018-12-20T14:34:35.397Z,4.46
2018-12-20T14:37:02.914Z,4.40
2018-12-20T14:39:30.465Z,4.31
2018-12-20T14:41:58.041Z,4.35
2018-12-20T14:44:25.587Z,4.39
2018-12-20T14:46:53.163Z,4.42
2018-12-20T14:49:20.714Z,4.39
2018-12-20T14:51:48.298Z,4.39
2018-12-20T14:54:15.967Z,4.43
2018-12-20T14:56:43.523Z,4.46
2018-12-20T14:59:11.103Z,4.38
2018-12-20T15:01:38.662Z,4.39
2018-12-20T15:04:06.309Z,4.45
2018-12-20T15:06:33.874Z,4.38
2018-12-20T15:09:01.457Z,4.36
2018-12-20T15:11:29.034Z,4.31
2018-12-20T15:13:56.555Z,4.33
2018-12-20T15:16:24.106Z,4.35
2018-12-20T15:18:51.682Z,4.23
2018-12-20T15:21:19.252Z,4.24
2018-12-20T15:23:46.792Z,4.15
2018-12-20T15:26:14.365Z,4.14
2018-12-20T15:28:41.899Z,4.20
2018-12-20T15:31:09.500Z,4.06
2018-12-20T15:33:37.382Z,3.97
2018-12-20T15:36:04.958Z,3.94
2018-12-20T15:38:32.573Z,4.00
2018-12-20T15:41:02.001Z,3.99
2018-12-20T15:43:29.696Z,3.99
2018-12-20T15:45:57.289Z,3.99
2018-12-20T15:48:24.828Z,3.91
2018-12-20T15:50:52.364Z,3.87
2018-12-20T15:53:19.917Z,3.92
2018-12-20T15:55:47.478Z,3.88
2018-12-20T15:58:15.022Z,3.87
2018-12-20T16:00:42.567Z,3.98
2018-12-20T16:03:10.221Z,3.90
2018-12-20T16:05:37.817Z,3.85
2018-12-20T16:08:06.792Z,3.78
2018-12-20T16:10:34.744Z,3.85
2018-12-20T16:13:02.332Z,3.83
2018-12-20T16:15:29.868Z,3.75
2018-12-20T16:17:57.459Z,3.80
2018-12-20T16:20:25.004Z,3.81
2018-12-20T16:22:52.621Z,3.89
2018-12-20T16:25:20.242Z,3.82
2018-12-20T16:27:47.794Z,3.89
2018-12-20T16:30:15.444Z,3.79
2018-12-20T16:32:43.035Z,3.82
2018-12-20T16:35:10.721Z,3.71
2018-12-20T16:37:38.245Z,3.72
2018-12-20T16:40:06.164Z,3.77
2018-12-20T16:42:33.917Z,3.77
2018-12-20T16:45:02.020Z,3.79
2018-12-20T16:47:29.673Z,3.76
2018-12-20T16:49:57.297Z,3.76
2018-12-20T16:52:24.840Z,3.70
2018-12-20T16:54:52.418Z,3.64
2018-12-20T16:57:20.025Z,3.69
2018-12-20T16:59:47.556Z,3.74
2018-12-20T17:02:15.104Z,3.68
2018-12-20T17:04:42.671Z,3.60
2018-12-20T17:07:10.239Z,3.61
2018-12-20T17:09:37.803Z,3.62
2018-12-20T17:12:05.392Z,3.67
2018-12-20T17:14:32.961Z,3.63
2018-12-20T17:17:01.139Z,3.60
2018-12-20T17:19:28.708Z,3.63
2018-12-20T17:21:56.264Z,3.63
2018-12-20T17:24:23.884Z,3.67
2018-12-20T17:26:51.470Z,3.70
2018-12-20T17:29:19.096Z,3.71
2018-12-20T17:31:46.708Z,3.73
2018-12-20T17:34:14.289Z,3.72
2018-12-20T17:36:41.885Z,3.76
2018-12-20T17:39:09.446Z,3.75
2018-12-20T17:41:36.986Z,3.77
2018-12-20T17:44:04.994Z,3.78
2018-12-20T17:46:32.552Z,3.76
2018-12-20T17:49:00.125Z,3.71
2018-12-20T17:51:27.703Z,3.69
2018-12-20T17:53:55.277Z,3.65
2018-12-20T17:56:22.838Z,3.72
2018-12-20T17:58:50.412Z,3.75
2018-12-20T18:01:17.993Z,3.81
2018-12-20T18:03:45.593Z,3.81
2018-12-20T18:06:13.224Z,3.81
2018-12-20T18:08:40.781Z,3.81
2018-12-20T18:11:08.336Z,3.84
2018-12-20T18:13:35.900Z,3.87
2018-12-20T18:16:03.609Z,3.87
2018-12-20T18:18:31.185Z,3.93
2018-12-20T18:20:59.073Z,3.94
2018-12-20T18:23:26.593Z,3.93
2018-12-20T18:25:54.169Z,3.93
2018-12-20T18:28:21.922Z,4.00
2018-12-20T18:30:49.434Z,4.01
2018-12-20T18:33:17.052Z,4.08
2018-12-20T18:35:44.831Z,4.02
2018-12-20T18:38:12.508Z,3.95
2018-12-20T18:40:40.390Z,3.85
2018-12-20T18:43:08.140Z,3.88
2018-12-20T18:45:35.702Z,3.92
2018-12-20T18:48:03.246Z,3.93
2018-12-20T18:50:30.852Z,3.91
2018-12-20T18:52:58.429Z,4.01
2018-12-20T18:55:26.022Z,4.00
2018-12-20T18:57:53.589Z,3.99
2018-12-20T19:00:21.145Z,4.06
2018-12-20T19:02:48.701Z,4.10
2018-12-20T19:05:16.604Z,4.12
2018-12-20T19:07:44.168Z,4.14
2018-12-20T19:10:11.785Z,4.09
2018-12-20T19:12:39.405Z,4.10
2018-12-20T19:15:07.843Z,4.12
2018-12-20T19:17:35.436Z,4.15
2018-12-20T19:20:03.350Z,4.15
2018-12-20T19:22:31.032Z,4.11
2018-12-20T19:24:58.642Z,4.13
2018-12-20T19:27:26.352Z,4.11
2018-12-20T19:29:54.322Z,4.08
2018-12-20T19:32:21.915Z,4.07
2018-12-20T19:34:49.535Z,4.11
2018-12-20T19:37:17.095Z,4.05
2018-12-20T19:39:45.464Z,4.06
2018-12-20T19:42:15.566Z,4.05
2018-12-20T19:44:43.157Z,3.94
2018-12-20T19:47:10.859Z,3.87
2018-12-20T19:49:38.632Z,3.88
2018-12-20T19:52:06.258Z,3.83
2018-12-20T19:54:34.036Z,3.86
2018-12-20T19:57:01.760Z,3.85
2018-12-20T19:59:29.401Z,3.84
2018-12-20T20:02:04.296Z,3.87
2018-12-20T20:04:26.630Z,3.79
2018-12-20T20:06:54.189Z,3.85
2018-12-20T20:09:21.774Z,3.85
2018-12-20T20:11:49.365Z,3.94
2018-12-20T20:14:16.951Z,3.94
2018-12-20T20:16:50.608Z,3.97
2018-12-20T20:19:14.357Z,3.98
2018-12-20T20:21:42.025Z,3.95
2018-12-20T20:24:09.942Z,3.91
2018-12-20T20:26:38.049Z,3.87
2018-12-20T20:29:05.816Z,3.76
2018-12-20T20:31:33.401Z,3.76
2018-12-20T20:34:01.158Z,3.72
2018-12-20T20:36:28.730Z,3.69
2018-12-20T20:39:01.917Z,3.70
2018-12-20T20:41:25.944Z,3.73
2018-12-20T20:43:55.524Z,3.74
2018-12-20T20:46:23.210Z,3.75
2018-12-20T20:48:51.166Z,3.74
2018-12-20T20:51:18.769Z,3.86
2018-12-20T20:53:46.344Z,3.88
2018-12-20T20:56:13.974Z,3.89
2018-12-20T20:58:41.556Z,3.93
2018-12-20T21:01:09.126Z,3.96
2018-12-20T21:03:36.866Z,3.97
2018-12-20T21:06:04.600Z,3.97
2018-12-20T21:08:32.186Z,4.00
2018-12-20T21:10:59.789Z,4.00
2018-12-20T21:13:27.451Z,4.01
2018-12-20T21:15:55.093Z,4.05
2018-12-20T21:18:22.706Z,4.02
2018-12-20T21:20:50.566Z,3.95
2018-12-20T21:23:18.140Z,4.02
2018-12-20T21:25:45.714Z,3.97
2018-12-20T21:28:13.604Z,3.98
2018-12-20T21:30:41.174Z,3.99
2018-12-20T21:33:08.756Z,4.01
2018-12-20T21:35:36.345Z,4.03
2018-12-20T21:38:03.913Z,4.03
2018-12-20T21:40:31.466Z,4.00
2018-12-20T21:42:59.090Z,3.91
2018-12-20T21:45:26.706Z,3.89
2018-12-20T21:47:54.228Z,3.87
2018-12-20T21:50:21.804Z,3.83
2018-12-20T21:52:49.555Z,3.82
2018-12-20T21:55:17.133Z,3.81
2018-12-20T21:57:44.693Z,3.75
2018-12-20T22:00:12.524Z,3.76
2018-12-20T22:02:40.086Z,3.79
2018-12-20T22:05:07.951Z,3.79
2018-12-20T22:07:35.517Z,3.84
2018-12-20T22:10:03.740Z,3.83
2018-12-20T22:12:31.314Z,3.81
2018-12-20T22:14:58.861Z,3.80
2018-12-20T22:17:26.432Z,3.80
2018-12-20T22:19:58.550Z,3.88
2018-12-20T22:22:23.597Z,3.88
2018-12-20T22:24:51.162Z,3.89
2018-12-20T22:27:20.934Z,3.89
2018-12-20T22:29:48.523Z,3.92
2018-12-20T22:32:16.038Z,3.96
2018-12-20T22:34:43.591Z,4.00
2018-12-20T22:37:11.145Z,3.96
2018-12-20T22:39:38.951Z,4.05
2018-12-20T22:42:06.527Z,4.11
2018-12-20T22:44:34.057Z,4.09
2018-12-20T22:47:01.622Z,4.15
2018-12-20T22:49:29.143Z,4.19
2018-12-20T22:51:56.886Z,4.23
2018-12-20T22:54:24.450Z,4.21
2018-12-20T22:56:52.002Z,4.13
2018-12-20T22:59:19.681Z,4.13
2018-12-20T23:01:47.238Z,4.22
2018-12-20T23:04:14.829Z,4.23
2018-12-20T23:06:42.530Z,4.20
2018-12-20T23:09:10.057Z,4.19
2018-12-20T23:11:37.632Z,4.19
2018-12-20T23:14:05.167Z,4.15
2018-12-20T23:16:33.013Z,4.12
2018-12-20T23:19:00.831Z,4.14
2018-12-20T23:21:28.387Z,4.18
2018-12-20T23:23:56.215Z,4.19
2018-12-20T23:26:23.767Z,4.12
2018-12-20T23:28:51.305Z,4.13
2018-12-20T23:31:18.905Z,4.10
2018-12-20T23:33:46.478Z,4.13
2018-12-20T23:36:14.031Z,4.12
2018-12-20T23:38:41.598Z,4.19
2018-12-20T23:41:09.121Z,4.18
2018-12-20T23:43:36.688Z,4.18
2018-12-20T23:46:04.229Z,4.20
2018-12-20T23:48:31.751Z,4.14
2018-12-20T23:50:59.365Z,4.17
2018-12-20T23:53:26.877Z,4.20
2018-12-20T23:55:54.441Z,4.24
2018-12-20T23:58:21.977Z,4.22
